createdAt,value
2019-05-03T00:01:12.859Z,96684.19
2019-05-03T00:03:13.849Z,96681.35
2019-05-03T00:05:21.997Z,96687.35
2019-05-03T00:07:22.772Z,96684.05
2019-05-03T00:09:24.357Z,96692.63
2019-05-03T00:11:26.008Z,96690.99
2019-05-03T00:13:27.587Z,96694.16
2019-05-03T00:15:32.312Z,96693.04
2019-05-03T00:17:32.660Z,96694.02
2019-05-03T00:19:34.262Z,96690.65
2019-05-03T00:21:35.901Z,96692.26
2019-05-03T00:23:37.488Z,96694.77
2019-05-03T00:25:39.097Z,96684.95
2019-05-03T00:27:42.623Z,96695.41
2019-05-03T00:29:42.414Z,96690.99
2019-05-03T00:31:44.004Z,96697.38
2019-05-03T00:33:45.608Z,96702.47
2019-05-03T00:35:52.710Z,96705.47
2019-05-03T00:37:55.284Z,96712.38
2019-05-03T00:39:57.764Z,96706.13
2019-05-03T00:41:59.358Z,96705.43
2019-05-03T00:44:02.253Z,96704.81
2019-05-03T00:46:02.647Z,96708.45
2019-05-03T00:48:04.276Z,96712.94
2019-05-03T00:50:05.878Z,96704.26
2019-05-03T00:52:07.483Z,96709.73
2019-05-03T00:54:09.077Z,96698.59
2019-05-03T00:56:12.245Z,96702.73
2019-05-03T00:58:12.388Z,96697.07
2019-05-03T01:00:13.982Z,96688.35
2019-05-03T01:02:15.558Z,96692.00
2019-05-03T01:04:17.144Z,96688.49
2019-05-03T01:06:18.727Z,96689.07
2019-05-03T01:08:22.018Z,96693.52
2019-05-03T01:10:22.631Z,96693.23
2019-05-03T01:12:23.734Z,96696.77
2019-05-03T01:14:25.319Z,96696.92
2019-05-03T01:16:26.890Z,96692.23
2019-05-03T01:18:28.494Z,96684.23
2019-05-03T01:20:31.883Z,96691.23
2019-05-03T01:22:32.208Z,96689.45
2019-05-03T01:24:33.404Z,96694.56
2019-05-03T01:26:35.016Z,96698.27
2019-05-03T01:28:36.685Z,96690.18
2019-05-03T01:30:38.286Z,96697.30
2019-05-03T01:32:41.724Z,96688.77
2019-05-03T01:34:41.733Z,96700.30
2019-05-03T01:36:43.354Z,96697.80
2019-05-03T01:38:44.996Z,96693.21
2019-05-03T01:40:46.620Z,96694.55
2019-05-03T01:42:48.204Z,96693.42
2019-05-03T01:44:49.845Z,96685.87
2019-05-03T01:46:51.655Z,96683.70
2019-05-03T01:48:53.136Z,96690.41
2019-05-03T01:50:57.215Z,96685.13
2019-05-03T01:52:59.546Z,96689.41
2019-05-03T01:55:03.366Z,96694.98
2019-05-03T01:57:02.790Z,96694.63
2019-05-03T01:59:04.408Z,96690.69
2019-05-03T02:01:08.539Z,96692.13
2019-05-03T02:03:12.261Z,96692.16
2019-05-03T02:05:17.981Z,96695.61
2019-05-03T02:07:19.586Z,96709.28
2019-05-03T02:09:21.652Z,96712.15
2019-05-03T02:11:22.896Z,96701.14
2019-05-03T02:13:24.516Z,96702.14
2019-05-03T02:15:26.119Z,96700.66
2019-05-03T02:17:27.702Z,96701.77
2019-05-03T02:19:29.320Z,96699.41
2019-05-03T02:21:32.218Z,96703.56
2019-05-03T02:23:32.597Z,96706.91
2019-05-03T02:25:34.216Z,96711.48
2019-05-03T02:27:35.804Z,96709.46
2019-05-03T02:29:37.392Z,96704.66
2019-05-03T02:31:38.979Z,96704.86
2019-05-03T02:33:43.174Z,96694.21
2019-05-03T02:35:42.946Z,96691.29
2019-05-03T02:37:44.075Z,96690.63
2019-05-03T02:39:45.536Z,96688.98
2019-05-03T02:41:49.500Z,96688.10
2019-05-03T02:43:49.644Z,96691.08
2019-05-03T02:45:51.856Z,96688.24
2019-05-03T02:47:55.443Z,96691.80
2019-05-03T02:49:56.184Z,96695.47
2019-05-03T02:51:57.424Z,96693.53
2019-05-03T02:53:59.053Z,96689.19
2019-05-03T02:56:13.664Z,96697.97
2019-05-03T02:58:02.299Z,96700.56
2019-05-03T03:00:05.073Z,96700.64
2019-05-03T03:02:06.417Z,96699.86
2019-05-03T03:04:07.251Z,96705.59
2019-05-03T03:06:08.861Z,96701.75
2019-05-03T03:08:10.449Z,96693.33
2019-05-03T03:10:12.084Z,96698.95
2019-05-03T03:12:15.241Z,96698.39
2019-05-03T03:14:16.759Z,96697.19
2019-05-03T03:16:20.495Z,96703.14
2019-05-03T03:18:18.645Z,96702.28
2019-05-03T03:20:20.271Z,96699.67
2019-05-03T03:22:21.874Z,96701.75
2019-05-03T03:24:25.855Z,96708.20
2019-05-03T03:26:34.455Z,96706.84
2019-05-03T03:28:26.778Z,96708.00
2019-05-03T03:30:32.401Z,96711.95
2019-05-03T03:32:38.550Z,96717.56
2019-05-03T03:34:38.655Z,96718.48
2019-05-03T03:36:54.494Z,96717.28
2019-05-03T03:38:38.961Z,96726.41
2019-05-03T03:40:40.564Z,96725.95
2019-05-03T03:42:42.149Z,96728.05
2019-05-03T03:44:45.395Z,96739.05
2019-05-03T03:46:45.583Z,96732.77
2019-05-03T03:48:47.099Z,96740.63
2019-05-03T03:50:48.685Z,96744.00
2019-05-03T03:52:50.307Z,96741.47
2019-05-03T03:54:51.920Z,96746.89
2019-05-03T03:57:01.559Z,96759.67
2019-05-03T03:58:55.643Z,96763.45
2019-05-03T04:00:56.843Z,96756.81
2019-05-03T04:02:58.425Z,96761.84
2019-05-03T04:05:00.054Z,96773.27
2019-05-03T04:07:01.739Z,96777.15
2019-05-03T04:09:05.186Z,96780.27
2019-05-03T04:11:06.276Z,96781.34
2019-05-03T04:13:06.713Z,96794.45
2019-05-03T04:15:27.040Z,96798.05
2019-05-03T04:17:36.107Z,96786.66
2019-05-03T04:19:36.559Z,96787.55
2019-05-03T04:21:38.016Z,96797.21
2019-05-03T04:23:39.640Z,96797.70
2019-05-03T04:25:41.230Z,96805.34
2019-05-03T04:27:45.336Z,96758.58
2019-05-03T04:29:45.391Z,96808.06
2019-05-03T04:31:46.161Z,96811.95
2019-05-03T04:33:47.812Z,96815.42
2019-05-03T04:35:49.404Z,96839.91
2019-05-03T04:37:51.008Z,96830.80
2019-05-03T04:39:52.620Z,96828.20
2019-05-03T04:41:55.931Z,96839.02
2019-05-03T04:43:55.907Z,96843.94
2019-05-03T04:46:00.985Z,96843.45
2019-05-03T04:48:05.720Z,96841.25
2019-05-03T04:50:05.573Z,96844.20
2019-05-03T04:52:06.201Z,96844.65
2019-05-03T04:54:25.690Z,96848.38
2019-05-03T04:56:27.093Z,96854.33
2019-05-03T04:58:28.676Z,96858.63
2019-05-03T05:00:30.303Z,96862.44
2019-05-03T05:02:31.896Z,96867.03
2019-05-03T05:04:35.754Z,96867.03
2019-05-03T05:06:35.233Z,96866.90
2019-05-03T05:08:36.822Z,96862.62
2019-05-03T05:10:38.468Z,96863.03
2019-05-03T05:12:40.074Z,96871.91
2019-05-03T05:14:41.675Z,96865.81
2019-05-03T05:16:46.229Z,96872.43
2019-05-03T05:18:45.749Z,96865.75
2019-05-03T05:21:00.516Z,96874.65
2019-05-03T05:23:02.123Z,96877.63
2019-05-03T05:25:04.522Z,96875.42
2019-05-03T05:27:06.220Z,96877.13
2019-05-03T05:29:07.823Z,96885.74
2019-05-03T05:31:09.431Z,96885.34
2019-05-03T05:33:25.762Z,96838.89
2019-05-03T05:35:27.342Z,96886.40
2019-05-03T05:37:28.967Z,96890.28
2019-05-03T05:39:30.568Z,96892.04
2019-05-03T05:41:32.156Z,96895.92
2019-05-03T05:43:35.558Z,96887.47
2019-05-03T05:45:35.451Z,96891.77
2019-05-03T05:47:37.519Z,96885.80
2019-05-03T05:49:41.687Z,96892.11
2019-05-03T05:51:44.475Z,96887.49
2019-05-03T05:53:44.973Z,96896.49
2019-05-03T05:56:02.355Z,96890.58
2019-05-03T05:58:08.019Z,96890.94
2019-05-03T06:00:09.989Z,96892.72
2019-05-03T06:02:11.596Z,96889.53
2019-05-03T06:04:15.267Z,96894.75
2019-05-03T06:06:20.542Z,96902.76
2019-05-03T06:08:35.382Z,96903.17
2019-05-03T06:10:45.463Z,96910.43
2019-05-03T06:12:48.468Z,96914.22
2019-05-03T06:14:51.974Z,96917.55
2019-05-03T06:16:56.243Z,96921.28
2019-05-03T06:18:57.833Z,96920.42
2019-05-03T06:21:15.238Z,96923.38
2019-05-03T06:23:16.815Z,96930.63
2019-05-03T06:25:21.859Z,96932.33
2019-05-03T06:27:24.428Z,96936.39
2019-05-03T06:29:25.600Z,96940.62
2019-05-03T06:31:27.184Z,96885.76
2019-05-03T06:33:28.787Z,96958.06
2019-05-03T06:35:30.395Z,96956.80
2019-05-03T06:37:32.004Z,96970.03
2019-05-03T06:39:35.225Z,96968.76
2019-05-03T06:41:35.314Z,96971.71
2019-05-03T06:43:39.580Z,96972.98
2019-05-03T06:45:41.073Z,96981.00
2019-05-03T06:47:44.831Z,96984.94
2019-05-03T06:49:46.771Z,96984.10
2019-05-03T06:51:45.705Z,96974.70
2019-05-03T06:53:47.575Z,96979.72
2019-05-03T06:55:48.439Z,96979.70
2019-05-03T06:57:49.714Z,96980.89
2019-05-03T06:59:54.904Z,96988.55
2019-05-03T07:02:05.644Z,96989.84
2019-05-03T07:04:06.767Z,96993.55
2019-05-03T07:06:15.002Z,96989.93
2019-05-03T07:08:25.340Z,96988.77
2019-05-03T07:10:40.414Z,96990.24
2019-05-03T07:12:47.764Z,96995.12
2019-05-03T07:14:50.548Z,96987.79
2019-05-03T07:16:51.139Z,96985.25
2019-05-03T07:18:55.870Z,96991.27
2019-05-03T07:20:57.082Z,96988.75
2019-05-03T07:22:56.939Z,96999.83
2019-05-03T07:24:58.548Z,96993.14
2019-05-03T07:27:00.155Z,97006.79
2019-05-03T07:29:01.752Z,97002.20
2019-05-03T07:31:04.830Z,97005.61
2019-05-03T07:33:05.541Z,96957.86
2019-05-03T07:35:07.151Z,96998.91
2019-05-03T07:37:08.784Z,97002.20
2019-05-03T07:39:10.372Z,97004.73
2019-05-03T07:41:11.958Z,97003.88
2019-05-03T07:43:14.875Z,97000.30
2019-05-03T07:45:15.260Z,97009.02
2019-05-03T07:47:16.848Z,97002.96
2019-05-03T07:49:18.430Z,97005.31
2019-05-03T07:51:20.017Z,97008.13
2019-05-03T07:53:21.590Z,97018.15
2019-05-03T07:55:24.881Z,97021.45
2019-05-03T07:57:30.850Z,96979.87
2019-05-03T07:59:32.496Z,97019.94
2019-05-03T08:01:35.605Z,97019.16
2019-05-03T08:03:35.805Z,97029.24
2019-05-03T08:05:37.416Z,97029.00
2019-05-03T08:07:39.030Z,97024.88
2019-05-03T08:09:40.680Z,97036.59
2019-05-03T08:11:44.321Z,97032.88
2019-05-03T08:13:44.663Z,97027.00
2019-05-03T08:15:45.603Z,97027.46
2019-05-03T08:17:47.192Z,97026.60
2019-05-03T08:19:48.807Z,97027.56
2019-05-03T08:21:50.514Z,97029.21
2019-05-03T08:23:52.140Z,97033.47
2019-05-03T08:25:55.620Z,97030.37
2019-05-03T08:27:55.400Z,97037.64
2019-05-03T08:29:57.012Z,97034.03
2019-05-03T08:32:05.027Z,97032.02
2019-05-03T08:34:08.600Z,97032.39
2019-05-03T08:36:10.200Z,97034.95
2019-05-03T08:38:11.784Z,97027.61
2019-05-03T08:40:15.453Z,97029.78
2019-05-03T08:42:15.077Z,97034.25
2019-05-03T08:44:16.664Z,97026.98
2019-05-03T08:46:18.272Z,97031.56
2019-05-03T08:48:19.883Z,97027.59
2019-05-03T08:50:21.811Z,97029.22
2019-05-03T08:52:24.830Z,97027.45
2019-05-03T08:54:25.556Z,97026.98
2019-05-03T08:56:26.468Z,97027.84
2019-05-03T08:58:28.056Z,97034.21
2019-05-03T09:00:29.630Z,97029.98
2019-05-03T09:02:31.240Z,97026.59
2019-05-03T09:04:37.478Z,97031.66
2019-05-03T09:06:35.449Z,97025.62
2019-05-03T09:08:36.210Z,97019.65
2019-05-03T09:10:38.744Z,97020.72
2019-05-03T09:12:46.119Z,97023.30
2019-05-03T09:14:48.474Z,97019.38
2019-05-03T09:16:49.390Z,97022.84
2019-05-03T09:18:50.976Z,97025.93
2019-05-03T09:20:52.572Z,97026.84
2019-05-03T09:22:54.961Z,97019.41
2019-05-03T09:24:55.864Z,97026.30
2019-05-03T09:26:57.467Z,97019.28
2019-05-03T09:28:59.057Z,97021.80
2019-05-03T09:31:00.641Z,97016.89
2019-05-03T09:33:02.227Z,97022.20
2019-05-03T09:35:05.528Z,97029.03
2019-05-03T09:37:05.496Z,97020.85
2019-05-03T09:39:07.083Z,97025.92
2019-05-03T09:41:08.722Z,97031.56
2019-05-03T09:43:10.336Z,97022.28
2019-05-03T09:45:11.948Z,97030.52
2019-05-03T09:47:14.667Z,97026.19
2019-05-03T09:49:16.580Z,97031.44
2019-05-03T09:51:16.926Z,97020.67
2019-05-03T09:53:18.512Z,97024.77
2019-05-03T09:55:35.517Z,97024.56
2019-05-03T09:57:36.643Z,97020.03
2019-05-03T09:59:38.252Z,97023.20
2019-05-03T10:01:39.892Z,97024.30
2019-05-03T10:03:41.532Z,97023.83
2019-05-03T10:05:45.670Z,97030.17
2019-05-03T10:07:45.601Z,97027.48
2019-05-03T10:09:46.777Z,97028.98
2019-05-03T10:11:48.354Z,97031.72
2019-05-03T10:13:49.966Z,97028.51
2019-05-03T10:15:51.581Z,97035.13
2019-05-03T10:17:55.313Z,97031.50
2019-05-03T10:19:54.884Z,97029.83
2019-05-03T10:21:56.491Z,97031.62
2019-05-03T10:23:58.099Z,97030.45
2019-05-03T10:25:59.708Z,97033.55
2019-05-03T10:28:01.349Z,97041.53
2019-05-03T10:30:10.443Z,97026.34
2019-05-03T10:32:22.543Z,97034.01
2019-05-03T10:34:24.837Z,97031.67
2019-05-03T10:36:25.824Z,97034.33
2019-05-03T10:38:27.436Z,97031.80
2019-05-03T10:40:29.072Z,97036.52
2019-05-03T10:42:30.664Z,97027.91
2019-05-03T10:44:32.287Z,97031.25
2019-05-03T10:46:34.477Z,97031.99
2019-05-03T10:48:35.706Z,97033.64
2019-05-03T10:50:37.225Z,97034.19
2019-05-03T10:52:39.603Z,97028.30
2019-05-03T10:54:41.213Z,97023.45
2019-05-03T10:56:45.079Z,97034.86
2019-05-03T10:58:45.262Z,97030.75
2019-05-03T11:00:52.834Z,97026.53
2019-05-03T11:02:48.413Z,97024.00
2019-05-03T11:04:50.020Z,97017.89
2019-05-03T11:06:51.627Z,97016.53
2019-05-03T11:08:54.635Z,97010.56
2019-05-03T11:10:55.059Z,97017.05
2019-05-03T11:12:56.623Z,97012.17
2019-05-03T11:14:58.212Z,97011.81
2019-05-03T11:17:00.641Z,97014.73
2019-05-03T11:19:01.402Z,97019.64
2019-05-03T11:21:05.142Z,97018.05
2019-05-03T11:23:05.973Z,97008.31
2019-05-03T11:25:06.287Z,97013.45
2019-05-03T11:27:10.491Z,97008.97
2019-05-03T11:29:12.100Z,97019.14
2019-05-03T11:31:32.479Z,97015.13
2019-05-03T11:33:35.320Z,97027.69
2019-05-03T11:35:38.220Z,97018.98
2019-05-03T11:37:53.700Z,97022.92
2019-05-03T11:39:55.835Z,97024.74
2019-05-03T11:41:56.953Z,97029.12
2019-05-03T11:43:58.551Z,97017.22
2019-05-03T11:46:00.158Z,97028.36
2019-05-03T11:48:01.738Z,97023.71
2019-05-03T11:50:03.326Z,97023.83
2019-05-03T11:52:06.458Z,97021.42
2019-05-03T11:54:06.669Z,97029.19
2019-05-03T11:56:08.288Z,97027.08
2019-05-03T11:58:15.651Z,97027.72
2019-05-03T12:00:17.233Z,97030.71
2019-05-03T12:02:19.764Z,97028.58
2019-05-03T12:04:21.342Z,97029.85
2019-05-03T12:06:24.862Z,97023.76
2019-05-03T12:08:25.301Z,97031.19
2019-05-03T12:10:44.827Z,97023.03
2019-05-03T12:12:29.534Z,97021.75
2019-05-03T12:14:30.461Z,97021.36
2019-05-03T12:17:08.612Z,97027.25
2019-05-03T12:18:47.688Z,97026.58
2019-05-03T12:20:37.106Z,97045.63
2019-05-03T12:22:37.654Z,97040.51
2019-05-03T12:24:39.491Z,97038.31
2019-05-03T12:26:44.051Z,97037.16
2019-05-03T12:28:44.634Z,97047.31
2019-05-03T12:30:44.938Z,97046.82
2019-05-03T12:32:45.476Z,97041.27
2019-05-03T12:34:47.082Z,97042.47
2019-05-03T12:36:51.149Z,97033.47
2019-05-03T12:38:50.333Z,97028.66
2019-05-03T12:40:51.924Z,97027.72
2019-05-03T12:42:55.287Z,97028.68
2019-05-03T12:44:55.244Z,97021.98
2019-05-03T12:46:56.851Z,97024.00
2019-05-03T12:48:58.471Z,97025.16
2019-05-03T12:51:00.427Z,97022.05
2019-05-03T12:53:01.715Z,97026.14
2019-05-03T12:55:04.558Z,97018.75
2019-05-03T12:57:05.213Z,97024.42
2019-05-03T12:59:06.651Z,97023.27
2019-05-03T13:01:09.034Z,97010.92
2019-05-03T13:03:15.196Z,97020.39
2019-05-03T13:05:15.532Z,97019.55
2019-05-03T13:07:31.575Z,97014.59
2019-05-03T13:09:33.159Z,97011.78
2019-05-03T13:11:36.542Z,97017.54
2019-05-03T13:13:36.468Z,97012.92
2019-05-03T13:15:38.052Z,97009.03
2019-05-03T13:17:39.664Z,97005.31
2019-05-03T13:19:41.256Z,97000.66
2019-05-03T13:21:44.882Z,96994.48
2019-05-03T13:23:45.304Z,97000.44
2019-05-03T13:25:46.177Z,96996.27
2019-05-03T13:27:47.817Z,97001.78
2019-05-03T13:29:49.435Z,96993.98
2019-05-03T13:32:00.830Z,96995.42
2019-05-03T13:33:54.765Z,96983.94
2019-05-03T13:35:55.173Z,96983.77
2019-05-03T13:37:56.017Z,96982.72
2019-05-03T13:39:57.654Z,96981.56
2019-05-03T13:41:59.240Z,96981.08
2019-05-03T13:44:00.860Z,96985.95
2019-05-03T13:46:02.447Z,96981.52
2019-05-03T13:48:05.002Z,96985.16
2019-05-03T13:50:05.689Z,96988.80
2019-05-03T13:52:07.295Z,97000.04
2019-05-03T13:54:08.931Z,96992.31
2019-05-03T13:56:10.566Z,96986.33
2019-05-03T13:58:12.181Z,96984.91
2019-05-03T14:00:15.245Z,96984.06
2019-05-03T14:02:19.130Z,96983.80
2019-05-03T14:04:17.144Z,96980.19
2019-05-03T14:06:18.780Z,96987.92
2019-05-03T14:08:20.397Z,96982.94
2019-05-03T14:10:22.071Z,96975.47
2019-05-03T14:12:24.437Z,96983.98
2019-05-03T14:14:25.847Z,96983.48
2019-05-03T14:16:27.008Z,96982.92
2019-05-03T14:18:28.629Z,96981.02
2019-05-03T14:20:46.142Z,96988.42
2019-05-03T14:22:48.330Z,96986.15
2019-05-03T14:24:49.940Z,96984.20
2019-05-03T14:26:51.536Z,96986.73
2019-05-03T14:28:54.843Z,96989.72
2019-05-03T14:30:54.964Z,96986.15
2019-05-03T14:32:56.516Z,96981.50
2019-05-03T14:34:58.100Z,96980.69
2019-05-03T14:36:59.684Z,96976.06
2019-05-03T14:39:01.273Z,96983.20
2019-05-03T14:41:05.368Z,96983.31
2019-05-03T14:43:04.858Z,96990.33
2019-05-03T14:45:06.202Z,96979.78
2019-05-03T14:47:07.783Z,96981.20
2019-05-03T14:49:09.394Z,96982.63
2019-05-03T14:51:10.989Z,96989.93
2019-05-03T14:53:14.639Z,96986.63
2019-05-03T14:55:15.265Z,96976.48
2019-05-03T14:57:16.892Z,96944.06
2019-05-03T14:59:34.661Z,96983.08
2019-05-03T15:01:38.047Z,96986.91
2019-05-03T15:03:39.680Z,96985.09
2019-05-03T15:05:41.278Z,96984.18
2019-05-03T15:07:42.878Z,96981.52
2019-05-03T15:09:45.856Z,96986.95
2019-05-03T15:11:46.202Z,96984.38
2019-05-03T15:13:47.816Z,96979.28
2019-05-03T15:15:49.427Z,96975.50
2019-05-03T15:17:51.016Z,96975.13
2019-05-03T15:19:54.578Z,96979.92
2019-05-03T15:21:54.779Z,96975.36
2019-05-03T15:23:55.934Z,96979.19
2019-05-03T15:25:57.527Z,96980.52
2019-05-03T15:27:59.168Z,96982.91
2019-05-03T15:30:00.756Z,96978.23
2019-05-03T15:32:04.860Z,96977.81
2019-05-03T15:34:04.626Z,96971.52
2019-05-03T15:36:05.671Z,96973.22
2019-05-03T15:38:07.284Z,96980.11
2019-05-03T15:40:08.896Z,96983.08
2019-05-03T15:42:10.532Z,96979.70
2019-05-03T15:44:16.632Z,96990.03
2019-05-03T15:46:20.648Z,96990.58
2019-05-03T15:48:24.437Z,96989.52
2019-05-03T15:50:25.130Z,96991.34
2019-05-03T15:52:25.612Z,96993.13
2019-05-03T15:54:27.223Z,96994.83
2019-05-03T15:56:28.831Z,96994.33
2019-05-03T15:58:30.468Z,96990.91
2019-05-03T16:00:32.078Z,96988.76
2019-05-03T16:02:35.164Z,96994.31
2019-05-03T16:04:35.750Z,96991.77
2019-05-03T16:06:37.012Z,96995.19
2019-05-03T16:08:38.583Z,96989.72
2019-05-03T16:10:40.238Z,96990.59
2019-05-03T16:12:41.843Z,96992.66
2019-05-03T16:14:44.542Z,96990.89
2019-05-03T16:16:45.272Z,96999.32
2019-05-03T16:18:46.856Z,96995.93
2019-05-03T16:20:48.465Z,96995.07
2019-05-03T16:22:50.088Z,96996.25
2019-05-03T16:24:51.697Z,96996.89
2019-05-03T16:26:59.061Z,96988.75
2019-05-03T16:29:04.559Z,96983.13
2019-05-03T16:31:05.105Z,96984.28
2019-05-03T16:33:06.286Z,96988.02
2019-05-03T16:35:07.939Z,96990.97
2019-05-03T16:37:09.515Z,96990.37
2019-05-03T16:39:11.123Z,96988.20
2019-05-03T16:41:12.753Z,96985.06
2019-05-03T16:43:16.163Z,96987.62
2019-05-03T16:45:17.071Z,96987.18
2019-05-03T16:47:17.701Z,96989.31
2019-05-03T16:49:19.312Z,96987.72
2019-05-03T16:51:20.952Z,96983.20
2019-05-03T16:53:22.565Z,96987.23
2019-05-03T16:55:25.673Z,96991.13
2019-05-03T16:57:25.864Z,96978.33
2019-05-03T16:59:27.448Z,96980.91
2019-05-03T17:01:29.055Z,96974.94
2019-05-03T17:03:38.502Z,96975.86
2019-05-03T17:05:34.825Z,96980.55
2019-05-03T17:07:37.920Z,96980.13
2019-05-03T17:09:40.254Z,96976.81
2019-05-03T17:11:41.876Z,96973.02
2019-05-03T17:13:45.685Z,96981.19
2019-05-03T17:15:45.128Z,96985.38
2019-05-03T17:17:46.736Z,96985.98
2019-05-03T17:19:48.330Z,96988.23
2019-05-03T17:21:49.922Z,96988.44
2019-05-03T17:23:51.535Z,96992.83
2019-05-03T17:25:53.143Z,96992.00
2019-05-03T17:27:54.801Z,96987.03
2019-05-03T17:29:56.390Z,96986.48
2019-05-03T17:31:57.984Z,96983.25
2019-05-03T17:33:59.600Z,96987.64
2019-05-03T17:36:01.187Z,96985.58
2019-05-03T17:38:02.774Z,96984.95
2019-05-03T17:40:07.903Z,96982.98
2019-05-03T17:42:19.432Z,96987.84
2019-05-03T17:44:21.842Z,96993.86
2019-05-03T17:46:25.409Z,96992.56
2019-05-03T17:48:25.079Z,96988.63
2019-05-03T17:50:26.729Z,96992.30
2019-05-03T17:52:37.893Z,96989.59
2019-05-03T17:54:57.211Z,96990.34
2019-05-03T17:57:04.569Z,96990.12
2019-05-03T17:59:06.049Z,97000.20
2019-05-03T18:01:13.366Z,96992.00
2019-05-03T18:03:14.973Z,96991.37
2019-05-03T18:05:22.221Z,96998.56
2019-05-03T18:07:24.327Z,96997.48
2019-05-03T18:09:35.360Z,96999.84
2019-05-03T18:11:38.619Z,96993.79
2019-05-03T18:13:40.211Z,96988.11
2019-05-03T18:15:41.819Z,96988.33
2019-05-03T18:17:44.488Z,96983.30
2019-05-03T18:19:47.627Z,96986.52
2019-05-03T18:21:46.768Z,96994.59
2019-05-03T18:23:48.354Z,96991.53
2019-05-03T18:25:49.947Z,97003.36
2019-05-03T18:27:51.537Z,96996.92
2019-05-03T18:29:53.149Z,96997.36
2019-05-03T18:31:55.047Z,96997.78
2019-05-03T18:33:56.412Z,96996.84
2019-05-03T18:35:57.987Z,97003.31
2019-05-03T18:37:59.573Z,97002.94
2019-05-03T18:40:01.154Z,97001.69
2019-05-03T18:42:02.761Z,97011.52
2019-05-03T18:44:09.970Z,97012.43
2019-05-03T18:46:17.158Z,97011.32
2019-05-03T18:48:18.768Z,97016.95
2019-05-03T18:50:20.359Z,97014.56
2019-05-03T18:52:21.935Z,97019.41
2019-05-03T18:54:24.603Z,97012.84
2019-05-03T18:56:25.297Z,97021.47
2019-05-03T18:58:26.856Z,97027.09
2019-05-03T19:00:28.458Z,97025.77
2019-05-03T19:02:30.072Z,97031.88
2019-05-03T19:04:47.440Z,97024.67
2019-05-03T19:06:55.900Z,97033.16
2019-05-03T19:09:06.333Z,97032.25
2019-05-03T19:11:10.449Z,97033.59
2019-05-03T19:13:15.916Z,97029.52
2019-05-03T19:15:17.547Z,97026.91
2019-05-03T19:17:29.949Z,97024.33
2019-05-03T19:19:32.275Z,97027.52
2019-05-03T19:21:35.025Z,97025.10
2019-05-03T19:23:35.614Z,97028.28
2019-05-03T19:25:45.874Z,97022.83
2019-05-03T19:27:38.835Z,97018.74
2019-05-03T19:29:40.407Z,97015.18
2019-05-03T19:31:42.007Z,97008.63
2019-05-03T19:33:45.562Z,97014.31
2019-05-03T19:35:45.318Z,97011.70
2019-05-03T19:37:46.932Z,97013.50
2019-05-03T19:39:48.551Z,97007.46
2019-05-03T19:41:50.132Z,97011.81
2019-05-03T19:43:51.716Z,97006.73
2019-05-03T19:45:53.342Z,97004.28
2019-05-03T19:47:55.333Z,97002.59
2019-05-03T19:49:56.667Z,97006.08
2019-05-03T19:51:58.271Z,97005.65
2019-05-03T19:54:00.045Z,97005.98
2019-05-03T19:56:01.810Z,97011.20
2019-05-03T19:58:05.491Z,97007.13
2019-05-03T20:00:05.518Z,97003.59
2019-05-03T20:02:07.420Z,96979.98
2019-05-03T20:04:24.508Z,97013.42
2019-05-03T20:06:30.550Z,97000.76
2019-05-03T20:08:35.073Z,97004.92
2019-05-03T20:10:35.314Z,97004.23
2019-05-03T20:12:36.970Z,97000.84
2019-05-03T20:14:39.835Z,97007.16
2019-05-03T20:16:41.576Z,97004.73
2019-05-03T20:18:45.328Z,97001.50
2019-05-03T20:20:44.908Z,97002.84
2019-05-03T20:22:47.757Z,96999.05
2019-05-03T20:24:48.268Z,96968.25
2019-05-03T20:26:49.871Z,96995.02
2019-05-03T20:28:51.523Z,97004.45
2019-05-03T20:30:54.503Z,96999.18
2019-05-03T20:32:55.531Z,96989.50
2019-05-03T20:34:56.438Z,96997.08
2019-05-03T20:36:58.024Z,96997.70
2019-05-03T20:38:59.671Z,96981.30
2019-05-03T20:41:01.261Z,97000.81
2019-05-03T20:43:17.734Z,96993.69
2019-05-03T20:45:22.188Z,97002.38
2019-05-03T20:47:25.324Z,97000.28
2019-05-03T20:49:25.883Z,97008.27
2019-05-03T20:51:27.486Z,97008.57
2019-05-03T20:53:29.114Z,97007.48
2019-05-03T20:55:30.701Z,97010.50
2019-05-03T20:57:32.317Z,97013.52
2019-05-03T20:59:44.848Z,97011.45
2019-05-03T21:01:35.576Z,97011.30
2019-05-03T21:03:37.163Z,96998.16
2019-05-03T21:05:38.810Z,97004.78
2019-05-03T21:07:40.443Z,97005.92
2019-05-03T21:09:42.107Z,97007.18
2019-05-03T21:11:44.804Z,97000.58
2019-05-03T21:13:45.347Z,97004.28
2019-05-03T21:15:47.439Z,96998.95
2019-05-03T21:18:04.982Z,97007.88
2019-05-03T21:20:16.448Z,97007.55
2019-05-03T21:22:18.092Z,97007.27
2019-05-03T21:24:23.607Z,97011.58
2019-05-03T21:26:25.295Z,97006.13
2019-05-03T21:28:25.177Z,97008.83
2019-05-03T21:30:26.412Z,97008.13
2019-05-03T21:32:28.001Z,97006.06
2019-05-03T21:34:29.574Z,97004.13
2019-05-03T21:36:31.184Z,97004.59
2019-05-03T21:38:32.828Z,97009.58
2019-05-03T21:40:34.905Z,97007.58
2019-05-03T21:42:36.065Z,97007.66
2019-05-03T21:44:37.708Z,97004.89
2019-05-03T21:46:47.960Z,97005.78
2019-05-03T21:49:00.348Z,97001.75
2019-05-03T21:51:01.991Z,96998.21
2019-05-03T21:53:05.639Z,96998.02
2019-05-03T21:55:05.534Z,96991.06
2019-05-03T21:57:06.872Z,96993.00
2019-05-03T21:59:08.502Z,96995.34
2019-05-03T22:01:10.114Z,96996.74
2019-05-03T22:03:11.723Z,96993.31
2019-05-03T22:05:14.253Z,96991.92
2019-05-03T22:07:15.015Z,96990.41
2019-05-03T22:09:16.632Z,96991.55
2019-05-03T22:11:18.220Z,96985.78
2019-05-03T22:13:19.804Z,96990.58
2019-05-03T22:15:26.446Z,96987.96
2019-05-03T22:17:34.429Z,96994.06
2019-05-03T22:19:34.443Z,96983.67
2019-05-03T22:21:51.720Z,96991.13
2019-05-03T22:23:55.285Z,96988.80
2019-05-03T22:25:57.025Z,96980.92
2019-05-03T22:27:58.556Z,96976.64
2019-05-03T22:30:00.186Z,96988.49
2019-05-03T22:32:01.783Z,96983.14
2019-05-03T22:34:04.567Z,96940.12
2019-05-03T22:36:08.562Z,96981.36
2019-05-03T22:38:06.678Z,96978.91
2019-05-03T22:40:08.291Z,96972.00
2019-05-03T22:42:09.863Z,96974.34
2019-05-03T22:44:11.448Z,96972.19
2019-05-03T22:46:14.564Z,96964.41
2019-05-03T22:48:14.691Z,96964.11
2019-05-03T22:50:16.336Z,96960.42
2019-05-03T22:52:17.924Z,96959.70
2019-05-03T22:54:19.522Z,96955.25
2019-05-03T22:56:21.166Z,96950.43
2019-05-03T22:58:24.729Z,96949.84
2019-05-03T23:00:25.191Z,96952.69
2019-05-03T23:02:26.104Z,96946.84
2019-05-03T23:04:27.756Z,96951.91
2019-05-03T23:06:29.580Z,96942.33
2019-05-03T23:08:31.189Z,96944.86
2019-05-03T23:10:34.756Z,96945.30
2019-05-03T23:12:34.850Z,96945.72
2019-05-03T23:14:36.080Z,96946.61
2019-05-03T23:16:37.692Z,96943.53
2019-05-03T23:18:39.317Z,96942.31
2019-05-03T23:20:49.380Z,96942.16
2019-05-03T23:22:50.964Z,96938.13
2019-05-03T23:24:54.251Z,96935.70
2019-05-03T23:26:54.208Z,96926.73
2019-05-03T23:28:55.838Z,96922.38
2019-05-03T23:30:57.413Z,96926.10
2019-05-03T23:32:59.063Z,96925.93
2019-05-03T23:35:00.671Z,96926.23
2019-05-03T23:37:02.285Z,96921.06
2019-05-03T23:39:05.152Z,96925.74
2019-05-03T23:41:05.607Z,96912.25
2019-05-03T23:43:07.196Z,96917.26
2019-05-03T23:45:08.826Z,96914.21
2019-05-03T23:47:11.143Z,96919.75
2019-05-03T23:49:14.455Z,96922.34
2019-05-03T23:51:30.092Z,96924.55
2019-05-03T23:53:31.745Z,96919.91
2019-05-03T23:55:34.590Z,96911.74
2019-05-03T23:57:35.762Z,96913.86
2019-05-03T23:59:37.252Z,96908.84
